Vibrant Curiosity — 2BQE2 — position and weather

sailwx.info

Track history (hours):
 
Tides and Currents Weather Stations Pressure Air Temp Water Temp Dewpoint Dewpoint Depression Visibility Wind Speed Wind Dir Waves Ship Positions

Vibrant Curiosity

Last reported at 2016-Jun-08 00:29 UTC. Time now 2016-Jun-26 22:51 UTC.
Position N 01°13' E 103°50'.
Warning: this ship's position is 18 days out of date.

Length 85 m; draft 4 m.

Type: Pleasure craft. MMSI: 235068366.

Date/timePositionNaut miles runAvg speedWind from/ knotsBaromVisibWave heightAir tempDewpointWater temp
2016-Jun-08 00:29N 01°13' E 103°50'3 2.5
2016-Jun-07 23:23N 01°16' E 103°48'1 0.2
2016-Jun-07 20:25N 01°16' E 103°49'0 0.0
2016-Jun-07 17:27N 01°16' E 103°49'0 0.0
2016-Jun-07 16:25N 01°16' E 103°49'0 0.0
2016-Jun-07 10:06N 01°16' E 103°49'1 0.7
2016-Jun-07 08:22N 01°15' E 103°49'  
2016-Jun-03 10:33N 01°14' E 103°49'3 2.7
2016-Jun-03 09:28N 01°15' E 103°46'4 0.4
2016-Jun-03 00:16N 01°13' E 103°49'3 3.8
2016-Jun-02 23:29N 01°16' E 103°49'0 0.0
2016-Jun-02 21:22N 01°16' E 103°49'0 0.0
2016-Jun-02 19:13N 01°16' E 103°49'0 0.0
2016-Jun-02 18:25N 01°16' E 103°49'0 0.0
2016-Jun-02 17:29N 01°16' E 103°49'0 0.0
2016-Jun-02 15:31N 01°16' E 103°49'0 0.0
2016-Jun-02 11:12N 01°16' E 103°49'0 0.0
2016-Jun-02 10:04N 01°16' E 103°49'0 0.0
2016-Jun-02 09:16N 01°16' E 103°49'0 0.0
2016-Jun-02 08:32N 01°16' E 103°49'0 0.0
2016-Jun-01 19:16N 01°16' E 103°49'0 0.0
2016-Jun-01 18:23N 01°16' E 103°49'0 0.0
2016-Jun-01 17:31N 01°16' E 103°49'0 0.0
2016-Jun-01 16:33N 01°16' E 103°49'0 0.0
2016-Jun-01 15:33N 01°16' E 103°49'0 0.0
2016-Jun-01 08:17N 01°16' E 103°49'0 0.0
2016-Jun-01 07:32N 01°16' E 103°49'0 0.0
2016-Jun-01 06:28N 01°16' E 103°49'0 0.0
2016-Jun-01 05:26N 01°16' E 103°49'0 0.0
2016-Jun-01 04:28N 01°16' E 103°49'0 0.0
2016-Jun-01 03:24N 01°16' E 103°49'0 0.0
2016-Jun-01 02:32N 01°16' E 103°49'0 0.0
2016-Jun-01 01:09N 01°16' E 103°49'0 0.0
2016-Jun-01 00:31N 01°16' E 103°49'0 0.0
2016-May-31 23:22N 01°16' E 103°49'0 0.0
2016-May-31 22:30N 01°16' E 103°49'0 0.0
2016-May-31 21:28N 01°16' E 103°49'0 0.0
2016-May-31 20:25N 01°16' E 103°49'0 0.0
2016-May-31 19:31N 01°16' E 103°49'0 0.0
2016-May-31 18:31N 01°16' E 103°49'0 0.0
2016-May-31 17:25N 01°16' E 103°49'0 0.0
2016-May-31 16:28N 01°16' E 103°49'0 0.0
2016-May-31 15:28N 01°16' E 103°49'0 0.0
2016-May-31 14:22N 01°16' E 103°49'0 0.0
2016-May-31 13:16N 01°16' E 103°49'0 0.0
2016-May-31 12:33N 01°16' E 103°49'0 0.0
2016-May-31 11:28N 01°16' E 103°49'0 0.0
2016-May-31 10:27N 01°16' E 103°49'0 0.0
2016-May-31 09:25N 01°16' E 103°49'0 0.0
2016-May-31 08:30N 01°16' E 103°49'0 0.0
2016-May-31 07:33N 01°16' E 103°49'0 0.0
2016-May-31 06:31N 01°16' E 103°49'0 0.0
2016-May-31 04:13N 01°16' E 103°49'0 0.0
2016-May-31 03:31N 01°16' E 103°49'0 0.0
2016-May-31 02:24N 01°16' E 103°49'0 0.0
2016-May-31 01:33N 01°16' E 103°49'0 0.0
2016-May-31 00:30N 01°16' E 103°49'0 0.0
2016-May-30 23:26N 01°16' E 103°49'0 0.0
2016-May-30 22:27N 01°16' E 103°49'0 0.0
2016-May-30 21:33N 01°16' E 103°49'0 0.0
2016-May-30 20:31N 01°16' E 103°49'0 0.0
2016-May-30 19:31N 01°16' E 103°49'0 0.0
2016-May-30 18:30N 01°16' E 103°49'0 0.0
2016-May-30 17:33N 01°16' E 103°49'0 0.0
2016-May-30 16:33N 01°16' E 103°49'0 0.0
2016-May-30 15:32N 01°16' E 103°49'0 0.0
2016-May-30 14:32N 01°16' E 103°49'0 0.0
2016-May-30 13:22N 01°16' E 103°49'0 0.0
2016-May-30 12:33N 01°16' E 103°49'0 0.0
2016-May-30 11:30N 01°16' E 103°49'0 0.0
2016-May-30 10:32N 01°16' E 103°49'0 0.0
2016-May-30 09:30N 01°16' E 103°49'0 0.0
2016-May-30 08:33N 01°16' E 103°49'0 0.0
2016-May-30 07:33N 01°16' E 103°49'0 0.0
2016-May-30 06:21N 01°16' E 103°49'0 0.0
2016-May-30 05:30N 01°16' E 103°49'0 0.0
2016-May-30 04:33N 01°16' E 103°49'0 0.0
2016-May-30 03:27N 01°16' E 103°49'0 0.0
2016-May-30 02:29N 01°16' E 103°49'0 0.0
2016-May-30 01:29N 01°16' E 103°49'0 0.0
2016-May-30 00:33N 01°16' E 103°49'0 0.0
2016-May-29 23:33N 01°16' E 103°49'0 0.0
2016-May-29 22:31N 01°16' E 103°49'0 0.0
2016-May-29 21:26N 01°16' E 103°49'0 0.0
2016-May-29 20:26N 01°16' E 103°49'0 0.0
2016-May-29 19:32N 01°16' E 103°49'0 0.0
2016-May-29 18:26N 01°16' E 103°49'0 0.0
2016-May-29 17:15N 01°16' E 103°49'0 0.0
2016-May-29 16:33N 01°16' E 103°49'0 0.0
2016-May-29 15:32N 01°16' E 103°49'0 0.0
2016-May-29 14:32N 01°16' E 103°49'0 0.0
2016-May-29 13:30N 01°16' E 103°49'0 0.0
2016-May-29 12:31N 01°16' E 103°49'0 0.0
2016-May-29 11:28N 01°16' E 103°49'0 0.0
2016-May-29 10:16N 01°16' E 103°49'0 0.0
2016-May-29 09:33N 01°16' E 103°49'1 0.9
2016-May-29 08:31N 01°15' E 103°48'0 0.0
2016-May-29 07:17N 01°15' E 103°48'1 1.0
2016-May-29 06:33N 01°16' E 103°48'3 1.4
2016-May-29 04:22N 01°13' E 103°49'1 1.7
2016-May-29 03:33N 01°13' E 103°48'10 9.7
2016-May-29 02:33N 01°12' E 103°38'4 3.6
2016-May-29 01:31N 01°12' E 103°35'  
Track history (hours):
 
Tides and Currents Weather Stations Pressure Air Temp Water Temp Dewpoint Dewpoint Depression Visibility Wind Speed Wind Dir Waves Ship Positions

Vibrant Curiosity

Last reported at 2016-Jun-08 00:29 UTC. Time now 2016-Jun-26 22:51 UTC.
Position N 01°13' E 103°50'.
Warning: this ship's position is 18 days out of date.

Length 85 m; draft 4 m.

Type: Pleasure craft. MMSI: 235068366.

Date/timePositionNaut miles runAvg speedWind from/ knotsBaromVisibWave heightAir tempDewpointWater temp
2016-Jun-08 00:29N 01°13' E 103°50'3 2.5
2016-Jun-07 23:23N 01°16' E 103°48'1 0.2
2016-Jun-07 20:25N 01°16' E 103°49'0 0.0
2016-Jun-07 17:27N 01°16' E 103°49'0 0.0
2016-Jun-07 16:25N 01°16' E 103°49'0 0.0
2016-Jun-07 10:06N 01°16' E 103°49'1 0.7
2016-Jun-07 08:22N 01°15' E 103°49'  
2016-Jun-03 10:33N 01°14' E 103°49'3 2.7
2016-Jun-03 09:28N 01°15' E 103°46'4 0.4
2016-Jun-03 00:16N 01°13' E 103°49'3 3.8
2016-Jun-02 23:29N 01°16' E 103°49'0 0.0
2016-Jun-02 21:22N 01°16' E 103°49'0 0.0
2016-Jun-02 19:13N 01°16' E 103°49'0 0.0
2016-Jun-02 18:25N 01°16' E 103°49'0 0.0
2016-Jun-02 17:29N 01°16' E 103°49'0 0.0
2016-Jun-02 15:31N 01°16' E 103°49'0 0.0
2016-Jun-02 11:12N 01°16' E 103°49'0 0.0
2016-Jun-02 10:04N 01°16' E 103°49'0 0.0
2016-Jun-02 09:16N 01°16' E 103°49'0 0.0
2016-Jun-02 08:32N 01°16' E 103°49'0 0.0
2016-Jun-01 19:16N 01°16' E 103°49'0 0.0
2016-Jun-01 18:23N 01°16' E 103°49'0 0.0
2016-Jun-01 17:31N 01°16' E 103°49'0 0.0
2016-Jun-01 16:33N 01°16' E 103°49'0 0.0
2016-Jun-01 15:33N 01°16' E 103°49'0 0.0
2016-Jun-01 08:17N 01°16' E 103°49'0 0.0
2016-Jun-01 07:32N 01°16' E 103°49'0 0.0
2016-Jun-01 06:28N 01°16' E 103°49'0 0.0
2016-Jun-01 05:26N 01°16' E 103°49'0 0.0
2016-Jun-01 04:28N 01°16' E 103°49'0 0.0
2016-Jun-01 03:24N 01°16' E 103°49'0 0.0
2016-Jun-01 02:32N 01°16' E 103°49'0 0.0
2016-Jun-01 01:09N 01°16' E 103°49'0 0.0
2016-Jun-01 00:31N 01°16' E 103°49'0 0.0
2016-May-31 23:22N 01°16' E 103°49'0 0.0
2016-May-31 22:30N 01°16' E 103°49'0 0.0
2016-May-31 21:28N 01°16' E 103°49'0 0.0
2016-May-31 20:25N 01°16' E 103°49'0 0.0
2016-May-31 19:31N 01°16' E 103°49'0 0.0
2016-May-31 18:31N 01°16' E 103°49'0 0.0
2016-May-31 17:25N 01°16' E 103°49'0 0.0
2016-May-31 16:28N 01°16' E 103°49'0 0.0
2016-May-31 15:28N 01°16' E 103°49'0 0.0
2016-May-31 14:22N 01°16' E 103°49'0 0.0
2016-May-31 13:16N 01°16' E 103°49'0 0.0
2016-May-31 12:33N 01°16' E 103°49'0 0.0
2016-May-31 11:28N 01°16' E 103°49'0 0.0
2016-May-31 10:27N 01°16' E 103°49'0 0.0
2016-May-31 09:25N 01°16' E 103°49'0 0.0
2016-May-31 08:30N 01°16' E 103°49'0 0.0
2016-May-31 07:33N 01°16' E 103°49'0 0.0
2016-May-31 06:31N 01°16' E 103°49'0 0.0
2016-May-31 04:13N 01°16' E 103°49'0 0.0
2016-May-31 03:31N 01°16' E 103°49'0 0.0
2016-May-31 02:24N 01°16' E 103°49'0 0.0
2016-May-31 01:33N 01°16' E 103°49'0 0.0
2016-May-31 00:30N 01°16' E 103°49'0 0.0
2016-May-30 23:26N 01°16' E 103°49'0 0.0
2016-May-30 22:27N 01°16' E 103°49'0 0.0
2016-May-30 21:33N 01°16' E 103°49'0 0.0
2016-May-30 20:31N 01°16' E 103°49'0 0.0
2016-May-30 19:31N 01°16' E 103°49'0 0.0
2016-May-30 18:30N 01°16' E 103°49'0 0.0
2016-May-30 17:33N 01°16' E 103°49'0 0.0
2016-May-30 16:33N 01°16' E 103°49'0 0.0
2016-May-30 15:32N 01°16' E 103°49'0 0.0
2016-May-30 14:32N 01°16' E 103°49'0 0.0
2016-May-30 13:22N 01°16' E 103°49'0 0.0
2016-May-30 12:33N 01°16' E 103°49'0 0.0
2016-May-30 11:30N 01°16' E 103°49'0 0.0
2016-May-30 10:32N 01°16' E 103°49'0 0.0
2016-May-30 09:30N 01°16' E 103°49'0 0.0
2016-May-30 08:33N 01°16' E 103°49'0 0.0
2016-May-30 07:33N 01°16' E 103°49'0 0.0
2016-May-30 06:21N 01°16' E 103°49'0 0.0
2016-May-30 05:30N 01°16' E 103°49'0 0.0
2016-May-30 04:33N 01°16' E 103°49'0 0.0
2016-May-30 03:27N 01°16' E 103°49'0 0.0
2016-May-30 02:29N 01°16' E 103°49'0 0.0
2016-May-30 01:29N 01°16' E 103°49'0 0.0
2016-May-30 00:33N 01°16' E 103°49'0 0.0
2016-May-29 23:33N 01°16' E 103°49'0 0.0
2016-May-29 22:31N 01°16' E 103°49'0 0.0
2016-May-29 21:26N 01°16' E 103°49'0 0.0
2016-May-29 20:26N 01°16' E 103°49'0 0.0
2016-May-29 19:32N 01°16' E 103°49'0 0.0
2016-May-29 18:26N 01°16' E 103°49'0 0.0
2016-May-29 17:15N 01°16' E 103°49'0 0.0
2016-May-29 16:33N 01°16' E 103°49'0 0.0
2016-May-29 15:32N 01°16' E 103°49'0 0.0
2016-May-29 14:32N 01°16' E 103°49'0 0.0
2016-May-29 13:30N 01°16' E 103°49'0 0.0
2016-May-29 12:31N 01°16' E 103°49'0 0.0
2016-May-29 11:28N 01°16' E 103°49'0 0.0
2016-May-29 10:16N 01°16' E 103°49'0 0.0
2016-May-29 09:33N 01°16' E 103°49'1 0.9
2016-May-29 08:31N 01°15' E 103°48'0 0.0
2016-May-29 07:17N 01°15' E 103°48'1 1.0
2016-May-29 06:33N 01°16' E 103°48'3 1.4
2016-May-29 04:22N 01°13' E 103°49'1 1.7
2016-May-29 03:33N 01°13' E 103°48'10 9.7
2016-May-29 02:33N 01°12' E 103°38'4 3.6
2016-May-29 01:31N 01°12' E 103°35'  

Dump ship's entire track history